Terminal Aerodrome Forecast
Issued by NWS Charleston, WV

Current Version | Previous Version | Text Only | Print | Product List | Glossary Off
Versions: 1 2 3 4 5 6 7 8 9 10 11 12 13 14 15 16 17 18 19 20

647
FTUS41 KRLX 040539
TAFPKB
TAF
KPKB 040539Z 0406/0506 28007KT P6SM SCT040
     FM040700 27006KT P6SM BKN025
     FM041100 27006KT P6SM OVC015
     FM041600 28005KT P6SM BKN025
     FM042200 28005KT P6SM BKN035=

USA.gov is the U.S. government's official web portal to all federal, state and local government web resources and services.